Aeroporto :







RITROVATECI SU...

 
LOGIN :

Iscrizione | Disclaimer

   EN    FR    IT 

 









Sommario :    VFR   VFR Marginale   IFR   IFR Intensivo   IFR Molto Intensivo
Visibilità : 
Base nubi : 
>= 8 km
>= 3000ft
5 / 8 km
1000 / 3000 ft
1500m / 5 km
500 / 1000 ft
800 / 1500m
200 / 500 ft
< 800m
< 200 ft
Simboli :   Temporali  Nebbia  Neve Forte  Precipitazioni Forti  Vento > 20 kt






- Altitudine del aeroporto : 13 ft
- Codice IATA : SXM


TNCM - Princess Juliana Int.

ULTIMO METAR :
  • 071200Z 09013KT 9999 SCT017 30/25 Q1016 NOSIG

METARs OBSOLETI :
  • 071100Z COR 08012KT 050V120 9999 VCSH SCT018 29/25 Q1016 NOSIG RMK VCSH S
  • 071000Z 08010KT 9999 BKN016 28/25 Q1015 NOSIG

TAF TNCM
Valido dal 07 a 12 ore il 08 a 12 ore UTC


071136Z 0712/0812 09016KT P6SM -SHRA SCT018 SCT030
FM071800 10013KT P6SM VCSH FEW017 SCT030
FIR TJZS / America del Nord



MetMap, La meteo Aeronautica in un colpo d'occhio ! - Copyright ORBIFLY Dicembre 2007 - Disclaimer

ORBIFLY MET'MAP TEAM :

Programmazione e sviluppo : Alexandra Zaïnal
Concezione : Baudouin d'Aumeries
Aiuto per la programmazione : Marc-Olivier Méhu
Supporto tecnico e logistico : Manuel Goepfert
Aiuto per la traduzione : Arnaldo La Scala

Contatto : metmap@orbifly.com




FONTI E CREDITI :

   NOAA